Lakewood, New Jersey
Current Conditions -  °F | °C
As of 2:55 PM on Sunday 23 Nov 2014 (Local Time) from KBLM Reporting Station
Clear Clear  
Wind Chill: 55°   Ceiling: Unl
Heat Index: 55°   Visibility: 10mi
Dew Point: 27°   Wind: 7mph
Humidity: 33%   Direction: 220°SW
Pressure: 30.14"   Gusts: NA
Location:  40.09°N, 74.21°W
Report Text: KBLM 231955Z AUTO 22006KT 10SM CLR 13/M03 A3014 RMK AO1
Loading
Personal Weather Stations






























Interactive Weather Map New forecast layout! Learn more

10-Day Weather Forecast

Advertisements
Track Severe Weather on mobile